createdAt,value
2022-12-29T00:00:08.305Z,4.52
2022-12-29T00:02:42.856Z,4.45
2022-12-29T00:05:11.019Z,4.50
2022-12-29T00:07:38.887Z,4.38
2022-12-29T00:10:07.564Z,4.44
2022-12-29T00:12:54.182Z,4.33
2022-12-29T00:15:40.311Z,4.23
2022-12-29T00:18:09.222Z,4.39
2022-12-29T00:20:57.907Z,4.24
2022-12-29T00:23:44.313Z,4.20
2022-12-29T00:26:34.130Z,4.36
2022-12-29T00:29:20.986Z,4.36
2022-12-29T00:32:08.359Z,4.24
2022-12-29T00:34:54.735Z,4.24
2022-12-29T00:37:51.676Z,4.26
2022-12-29T00:40:37.943Z,4.35
2022-12-29T00:43:24.145Z,4.29
2022-12-29T00:45:52.172Z,4.16
2022-12-29T00:48:40.090Z,3.83
2022-12-29T00:51:08.994Z,3.97
2022-12-29T00:53:36.948Z,3.91
2022-12-29T00:56:05.025Z,3.80
2022-12-29T00:58:32.955Z,3.93
2022-12-29T01:01:04.242Z,3.97
2022-12-29T01:03:33.301Z,3.83
2022-12-29T01:06:06.068Z,3.81
2022-12-29T01:08:34.405Z,3.60
2022-12-29T01:11:06.329Z,3.70
2022-12-29T01:13:35.861Z,3.62
2022-12-29T01:16:04.005Z,3.62
2022-12-29T01:18:32.279Z,3.57
2022-12-29T01:21:06.512Z,3.60
2022-12-29T01:23:35.057Z,3.43
2022-12-29T01:26:14.046Z,3.47
2022-12-29T01:28:43.219Z,3.50
2022-12-29T01:31:13.169Z,3.56
2022-12-29T01:33:43.333Z,3.61
2022-12-29T01:36:14.662Z,3.55
2022-12-29T01:38:43.081Z,3.51
2022-12-29T01:41:13.487Z,3.43
2022-12-29T01:43:54.197Z,3.49
2022-12-29T01:46:27.279Z,3.49
2022-12-29T01:49:17.257Z,3.33
2022-12-29T01:52:05.914Z,3.29
2022-12-29T01:54:55.332Z,3.28
2022-12-29T01:57:32.632Z,3.35
2022-12-29T02:00:14.758Z,3.28
2022-12-29T02:02:50.955Z,3.29
2022-12-29T02:05:33.481Z,3.09
2022-12-29T02:08:02.868Z,3.06
2022-12-29T02:10:32.701Z,3.06
2022-12-29T02:13:01.791Z,3.02
2022-12-29T02:15:48.274Z,2.82
2022-12-29T02:18:29.770Z,2.96
2022-12-29T02:21:15.533Z,3.07
2022-12-29T02:24:02.487Z,3.17
2022-12-29T02:26:30.556Z,3.17
2022-12-29T02:29:20.446Z,3.27
2022-12-29T02:32:26.365Z,3.26
2022-12-29T02:35:12.725Z,3.31
2022-12-29T02:38:11.424Z,3.01
2022-12-29T02:40:49.882Z,3.26
2022-12-29T02:43:41.637Z,3.28
2022-12-29T02:46:19.235Z,3.33
2022-12-29T02:48:56.007Z,3.30
2022-12-29T02:51:33.575Z,3.27
2022-12-29T02:54:21.070Z,3.27
2022-12-29T03:00:13.733Z,3.20
2022-12-29T03:03:02.611Z,3.07
2022-12-29T03:05:51.880Z,3.08
2022-12-29T03:08:36.667Z,3.02
2022-12-29T03:11:33.718Z,3.03
2022-12-29T03:14:46.073Z,3.09
2022-12-29T03:17:42.226Z,2.99
2022-12-29T03:20:16.091Z,2.85
2022-12-29T03:22:49.147Z,2.89
2022-12-29T03:25:35.125Z,2.96
2022-12-29T03:28:10.544Z,3.09
2022-12-29T03:30:44.897Z,2.82
2022-12-29T03:33:20.044Z,2.76
2022-12-29T03:35:52.096Z,2.60
2022-12-29T03:38:24.282Z,2.49
2022-12-29T03:40:57.020Z,2.78
2022-12-29T03:43:28.246Z,2.90
2022-12-29T03:45:56.789Z,2.92
2022-12-29T03:48:24.676Z,2.85
2022-12-29T03:50:55.612Z,2.55
2022-12-29T03:53:24.574Z,2.45
2022-12-29T03:55:52.822Z,2.57
2022-12-29T03:58:20.821Z,2.68
2022-12-29T04:00:59.731Z,2.72
2022-12-29T04:03:27.775Z,2.54
2022-12-29T04:05:55.804Z,2.61
2022-12-29T04:08:24.390Z,2.71
2022-12-29T04:10:52.357Z,2.55
2022-12-29T04:13:23.133Z,2.66
2022-12-29T04:15:53.797Z,2.70
2022-12-29T04:18:21.708Z,2.78
2022-12-29T04:21:01.936Z,2.63
2022-12-29T04:23:36.815Z,2.81
2022-12-29T04:26:10.185Z,2.85
2022-12-29T04:28:56.705Z,2.88
2022-12-29T04:31:44.865Z,2.97
2022-12-29T04:34:13.641Z,2.84
2022-12-29T04:36:42.565Z,2.50
2022-12-29T04:39:10.587Z,2.78
2022-12-29T04:41:40.309Z,2.95
2022-12-29T04:44:11.542Z,3.07
2022-12-29T04:46:58.956Z,2.95
2022-12-29T04:49:41.676Z,3.18
2022-12-29T04:52:36.667Z,3.33
2022-12-29T04:55:06.098Z,3.39
2022-12-29T04:57:34.093Z,3.47
2022-12-29T05:00:04.157Z,3.45
2022-12-29T05:02:32.312Z,3.31
2022-12-29T05:05:00.412Z,3.35
2022-12-29T05:07:28.534Z,3.52
2022-12-29T05:09:57.318Z,3.59
2022-12-29T05:12:25.945Z,3.71
2022-12-29T05:14:59.836Z,3.74
2022-12-29T05:18:17.585Z,3.74
2022-12-29T05:20:47.358Z,3.77
2022-12-29T05:23:16.312Z,3.64
2022-12-29T05:25:49.463Z,3.54
2022-12-29T05:28:37.644Z,3.68
2022-12-29T05:31:12.637Z,3.68
2022-12-29T05:33:40.748Z,3.53
2022-12-29T05:36:10.277Z,3.53
2022-12-29T05:38:44.512Z,3.28
2022-12-29T05:41:12.679Z,3.28
2022-12-29T05:44:04.010Z,3.39
2022-12-29T05:46:47.277Z,3.11
2022-12-29T05:49:33.823Z,3.07
2022-12-29T05:52:45.848Z,3.11
2022-12-29T05:55:14.735Z,3.08
2022-12-29T05:57:44.468Z,2.94
2022-12-29T06:00:16.335Z,2.94
2022-12-29T06:02:46.496Z,2.94
2022-12-29T06:05:17.327Z,2.98
2022-12-29T06:07:46.578Z,2.92
2022-12-29T06:10:17.549Z,2.96
2022-12-29T06:12:54.641Z,2.81
2022-12-29T06:15:22.744Z,2.77
2022-12-29T06:17:52.191Z,2.47
2022-12-29T06:20:20.125Z,2.39
2022-12-29T06:22:49.331Z,2.36
2022-12-29T06:25:17.896Z,2.49
2022-12-29T06:27:46.239Z,2.55
2022-12-29T06:30:14.566Z,2.53
2022-12-29T06:32:42.679Z,2.77
2022-12-29T06:35:13.283Z,2.64
2022-12-29T06:37:46.435Z,2.88
2022-12-29T06:40:14.552Z,2.82
2022-12-29T06:43:08.882Z,2.78
2022-12-29T06:45:41.434Z,2.62
2022-12-29T06:48:12.160Z,2.75
2022-12-29T06:50:40.233Z,2.49
2022-12-29T06:53:08.373Z,2.67
2022-12-29T06:55:36.390Z,2.85
2022-12-29T06:58:04.413Z,2.72
2022-12-29T07:00:32.390Z,2.53
2022-12-29T07:03:00.531Z,2.47
2022-12-29T07:05:28.971Z,2.62
2022-12-29T07:07:56.906Z,2.77
2022-12-29T07:10:24.889Z,2.83
2022-12-29T07:12:52.871Z,2.71
2022-12-29T07:15:20.774Z,2.68
2022-12-29T07:17:50.777Z,2.82
2022-12-29T07:20:24.704Z,2.60
2022-12-29T07:22:55.144Z,2.90
2022-12-29T07:25:23.884Z,3.04
2022-12-29T07:27:51.854Z,3.04
2022-12-29T07:30:20.044Z,3.35
2022-12-29T07:32:47.950Z,3.33
2022-12-29T07:35:16.005Z,3.59
2022-12-29T07:37:45.703Z,3.32
2022-12-29T07:40:14.247Z,3.29
2022-12-29T07:42:42.968Z,3.20
2022-12-29T07:45:12.002Z,3.22
2022-12-29T07:48:08.728Z,3.51
2022-12-29T07:50:38.009Z,3.41
2022-12-29T07:53:06.016Z,3.49
2022-12-29T07:55:34.062Z,3.75
2022-12-29T07:58:02.225Z,3.87
2022-12-29T08:00:30.410Z,3.95
2022-12-29T08:03:00.047Z,4.13
2022-12-29T08:05:28.037Z,4.17
2022-12-29T08:07:55.956Z,4.23
2022-12-29T08:10:24.036Z,4.18
2022-12-29T08:12:52.156Z,4.22
2022-12-29T08:15:20.089Z,4.35
2022-12-29T08:17:48.184Z,4.27
2022-12-29T08:20:16.064Z,4.06
2022-12-29T08:22:43.967Z,4.18
2022-12-29T08:25:11.894Z,4.21
2022-12-29T08:27:40.005Z,4.34
2022-12-29T08:30:08.624Z,4.40
2022-12-29T08:32:36.732Z,4.24
2022-12-29T08:35:04.933Z,4.56
2022-12-29T08:37:34.714Z,4.39
2022-12-29T08:40:04.975Z,4.57
2022-12-29T08:42:34.107Z,4.13
2022-12-29T08:45:02.411Z,4.42
2022-12-29T08:47:30.428Z,4.22
2022-12-29T08:49:58.287Z,4.44
2022-12-29T08:52:26.235Z,4.66
2022-12-29T08:54:54.137Z,4.64
2022-12-29T08:57:22.954Z,4.96
2022-12-29T09:00:16.275Z,4.80
2022-12-29T09:02:44.776Z,5.13
2022-12-29T09:05:13.012Z,5.52
2022-12-29T09:07:41.204Z,6.37
2022-12-29T09:10:09.462Z,6.77
2022-12-29T09:12:37.380Z,6.79
2022-12-29T09:15:07.409Z,6.67
2022-12-29T09:17:45.153Z,6.39
2022-12-29T09:20:18.760Z,6.13
2022-12-29T09:22:48.054Z,6.80
2022-12-29T09:25:15.968Z,8.36
2022-12-29T09:27:44.037Z,9.55
2022-12-29T09:30:15.682Z,10.55
2022-12-29T09:32:45.890Z,11.68
2022-12-29T09:35:16.911Z,12.54
2022-12-29T09:37:44.911Z,13.53
2022-12-29T09:40:30.587Z,13.43
2022-12-29T09:43:18.354Z,14.54
2022-12-29T09:46:04.721Z,15.44
2022-12-29T09:48:39.099Z,15.81
2022-12-29T09:51:16.738Z,16.24
2022-12-29T09:53:55.137Z,16.76
2022-12-29T09:56:24.737Z,17.20
2022-12-29T09:59:01.796Z,16.96
2022-12-29T10:01:39.621Z,16.98
2022-12-29T10:04:08.543Z,17.22
2022-12-29T10:07:27.470Z,16.53
2022-12-29T10:10:02.625Z,16.08
2022-12-29T10:12:59.772Z,17.61
2022-12-29T10:16:03.997Z,18.35
2022-12-29T10:18:49.861Z,19.75
2022-12-29T10:21:32.907Z,20.22
2022-12-29T10:24:05.700Z,20.09
2022-12-29T10:26:40.743Z,20.05
2022-12-29T10:29:25.805Z,19.12
2022-12-29T10:31:59.491Z,19.21
2022-12-29T10:34:50.509Z,18.45
2022-12-29T10:37:44.469Z,18.42
2022-12-29T10:40:41.644Z,20.59
2022-12-29T10:43:50.347Z,20.37
2022-12-29T10:46:37.136Z,21.37
2022-12-29T10:49:08.168Z,22.87
2022-12-29T10:51:42.576Z,24.38
2022-12-29T10:54:24.975Z,25.62
2022-12-29T10:57:09.264Z,26.22
2022-12-29T10:59:40.024Z,26.38
2022-12-29T11:02:08.341Z,26.40
2022-12-29T11:04:47.207Z,26.39
2022-12-29T11:07:22.214Z,26.54
2022-12-29T11:09:53.612Z,26.75
2022-12-29T11:12:28.073Z,25.59
2022-12-29T11:15:14.636Z,24.92
2022-12-29T11:17:53.864Z,26.51
2022-12-29T11:20:30.975Z,26.95
2022-12-29T11:22:59.925Z,26.68
2022-12-29T11:25:29.148Z,26.96
2022-12-29T11:28:04.205Z,26.22
2022-12-29T11:30:33.975Z,26.34
2022-12-29T11:33:05.881Z,25.33
2022-12-29T11:35:42.583Z,25.56
2022-12-29T11:38:29.922Z,26.54
2022-12-29T11:40:58.103Z,25.97
2022-12-29T11:43:39.518Z,25.56
2022-12-29T11:46:08.181Z,26.25
2022-12-29T11:48:42.928Z,26.25
2022-12-29T11:51:13.173Z,26.15
2022-12-29T11:53:48.273Z,26.01
2022-12-29T11:56:21.467Z,26.03
2022-12-29T11:58:51.855Z,25.70
2022-12-29T12:01:34.934Z,25.58
2022-12-29T12:04:16.291Z,25.52
2022-12-29T12:07:13.909Z,24.91
2022-12-29T12:09:51.597Z,23.88
2022-12-29T12:12:32.248Z,23.50
2022-12-29T12:15:04.044Z,22.11
2022-12-29T12:20:29.779Z,19.46
2022-12-29T12:23:16.698Z,18.49
2022-12-29T12:25:54.623Z,17.70
2022-12-29T12:28:54.891Z,16.21
2022-12-29T12:31:43.655Z,15.71
2022-12-29T12:34:35.287Z,15.40
2022-12-29T12:37:39.379Z,14.97
2022-12-29T12:40:29.424Z,14.65
2022-12-29T12:43:28.252Z,14.18
2022-12-29T12:46:21.975Z,13.88
2022-12-29T12:49:43.054Z,13.77
2022-12-29T12:52:29.224Z,13.56
2022-12-29T12:55:19.361Z,13.69
2022-12-29T12:58:23.030Z,13.77
2022-12-29T13:01:25.128Z,13.83
2022-12-29T13:04:29.219Z,13.69
2022-12-29T13:07:22.082Z,13.26
2022-12-29T13:10:27.232Z,13.18
2022-12-29T13:13:16.647Z,12.74
2022-12-29T13:16:14.493Z,12.87
2022-12-29T13:18:45.924Z,12.84
2022-12-29T13:21:57.306Z,12.80
2022-12-29T13:24:47.640Z,12.71
2022-12-29T13:27:37.078Z,12.03
2022-12-29T13:30:13.812Z,12.00
2022-12-29T13:33:00.667Z,12.03
2022-12-29T13:36:03.824Z,11.60
2022-12-29T13:38:46.824Z,11.67
2022-12-29T13:41:32.264Z,11.60
2022-12-29T13:44:04.139Z,11.44
2022-12-29T13:46:42.100Z,11.41
2022-12-29T13:49:16.533Z,11.40
2022-12-29T13:51:57.701Z,11.30
2022-12-29T13:54:59.611Z,11.19
2022-12-29T13:57:57.044Z,11.01
2022-12-29T14:00:31.740Z,11.02
2022-12-29T14:03:19.199Z,10.93
2022-12-29T14:06:20.638Z,10.67
2022-12-29T14:08:50.912Z,10.63
2022-12-29T14:11:23.495Z,10.63
2022-12-29T14:13:52.999Z,10.56
2022-12-29T14:16:36.250Z,10.46
2022-12-29T14:19:15.246Z,10.32
2022-12-29T14:21:57.652Z,10.15
2022-12-29T14:24:38.135Z,10.17
2022-12-29T14:27:12.769Z,10.08
2022-12-29T14:29:41.239Z,9.96
2022-12-29T14:32:27.550Z,9.49
2022-12-29T14:35:01.270Z,9.25
2022-12-29T14:37:31.341Z,9.37
2022-12-29T14:40:19.610Z,9.17
2022-12-29T14:42:49.389Z,9.19
2022-12-29T14:45:18.011Z,8.88
2022-12-29T14:47:49.780Z,8.62
2022-12-29T14:50:23.766Z,8.85
2022-12-29T14:53:03.939Z,8.81
2022-12-29T14:55:51.323Z,8.82
2022-12-29T14:58:30.200Z,8.67
2022-12-29T15:01:00.517Z,8.48
2022-12-29T15:03:37.751Z,8.05
2022-12-29T15:06:18.211Z,7.87
2022-12-29T15:09:22.359Z,8.05
2022-12-29T15:12:02.735Z,8.11
2022-12-29T15:14:40.821Z,8.10
2022-12-29T15:17:27.931Z,7.67
2022-12-29T15:19:58.260Z,7.83
2022-12-29T15:22:27.842Z,7.85
2022-12-29T15:24:58.210Z,7.72
2022-12-29T15:27:30.880Z,7.51
2022-12-29T15:30:05.381Z,7.47
2022-12-29T15:32:45.351Z,7.39
2022-12-29T15:35:27.398Z,7.35
2022-12-29T15:37:56.221Z,7.42
2022-12-29T15:40:33.070Z,7.35
2022-12-29T15:43:19.842Z,7.24
2022-12-29T15:45:48.619Z,7.20
2022-12-29T15:48:24.221Z,7.20
2022-12-29T15:50:53.635Z,7.02
2022-12-29T15:53:31.137Z,6.89
2022-12-29T15:56:10.049Z,6.81
2022-12-29T15:58:48.873Z,6.74
2022-12-29T16:01:21.529Z,6.84
2022-12-29T16:03:51.796Z,6.80
2022-12-29T16:06:30.377Z,6.62
2022-12-29T16:09:07.240Z,6.59
2022-12-29T16:11:37.745Z,6.53
2022-12-29T16:14:16.552Z,6.35
2022-12-29T16:16:47.776Z,6.23
2022-12-29T16:19:30.229Z,6.13
2022-12-29T16:22:00.423Z,6.09
2022-12-29T16:24:33.890Z,5.86
2022-12-29T16:27:21.258Z,5.97
2022-12-29T16:29:55.723Z,5.90
2022-12-29T16:32:33.981Z,5.42
2022-12-29T16:35:19.106Z,5.63
2022-12-29T16:37:48.545Z,5.63
2022-12-29T16:40:20.947Z,5.65
2022-12-29T16:42:52.169Z,5.57
2022-12-29T16:45:21.068Z,5.56
2022-12-29T16:48:07.443Z,5.21
2022-12-29T16:50:38.522Z,5.25
2022-12-29T16:53:18.211Z,5.28
2022-12-29T16:55:50.820Z,5.26
2022-12-29T16:58:24.081Z,5.18
2022-12-29T17:01:00.124Z,5.18
2022-12-29T17:03:39.565Z,5.20
2022-12-29T17:06:15.790Z,4.83
2022-12-29T17:08:45.612Z,4.87
2022-12-29T17:11:43.541Z,4.95
2022-12-29T17:14:36.696Z,4.91
2022-12-29T17:17:11.892Z,4.54
2022-12-29T17:19:40.249Z,4.07
2022-12-29T17:22:16.532Z,4.44
2022-12-29T17:24:45.019Z,4.50
2022-12-29T17:27:42.045Z,4.54
2022-12-29T17:30:22.068Z,4.52
2022-12-29T17:32:54.827Z,4.24
2022-12-29T17:35:24.486Z,4.26
2022-12-29T17:37:53.472Z,4.19
2022-12-29T17:40:26.137Z,4.32
2022-12-29T17:42:57.390Z,4.28
2022-12-29T17:45:27.638Z,4.09
2022-12-29T17:47:57.145Z,4.03
2022-12-29T17:50:27.566Z,4.08
2022-12-29T17:53:03.473Z,4.00
2022-12-29T17:55:37.694Z,4.03
2022-12-29T17:58:27.530Z,3.98
2022-12-29T18:00:58.826Z,4.00
2022-12-29T18:03:39.270Z,3.91
2022-12-29T18:06:11.499Z,3.92
2022-12-29T18:08:41.645Z,3.88
2022-12-29T18:11:37.380Z,3.73
2022-12-29T18:14:05.913Z,3.71
2022-12-29T18:16:34.353Z,3.70
2022-12-29T18:19:03.162Z,3.39
2022-12-29T18:21:31.897Z,3.43
2022-12-29T18:24:00.508Z,3.54
2022-12-29T18:26:36.035Z,3.53
2022-12-29T18:29:04.923Z,3.48
2022-12-29T18:31:36.960Z,3.21
2022-12-29T18:34:14.777Z,3.35
2022-12-29T18:36:43.419Z,3.36
2022-12-29T18:39:12.370Z,3.35
2022-12-29T18:41:40.879Z,3.27
2022-12-29T18:44:13.352Z,3.22
2022-12-29T18:46:42.089Z,3.28
2022-12-29T18:49:10.585Z,3.02
2022-12-29T18:51:39.222Z,3.18
2022-12-29T18:54:14.899Z,3.24
2022-12-29T18:56:43.291Z,3.26
2022-12-29T18:59:12.149Z,3.16
2022-12-29T19:01:40.751Z,3.06
2022-12-29T19:04:13.990Z,3.13
2022-12-29T19:06:43.336Z,3.13
2022-12-29T19:09:12.285Z,3.14
2022-12-29T19:11:42.922Z,3.12
2022-12-29T19:14:17.107Z,3.09
2022-12-29T19:16:46.254Z,3.04
2022-12-29T19:19:16.404Z,2.93
2022-12-29T19:21:44.970Z,2.98
2022-12-29T19:24:13.410Z,2.95
2022-12-29T19:26:42.180Z,2.81
2022-12-29T19:29:16.331Z,2.80
2022-12-29T19:31:45.432Z,2.83
2022-12-29T19:34:17.823Z,2.80
2022-12-29T19:36:46.449Z,2.83
2022-12-29T19:39:15.071Z,2.79
2022-12-29T19:41:43.442Z,2.85
2022-12-29T19:44:12.258Z,2.76
2022-12-29T19:46:40.688Z,2.77
2022-12-29T19:49:09.152Z,2.71
2022-12-29T19:51:37.625Z,2.70
2022-12-29T19:54:06.162Z,2.70
2022-12-29T19:56:34.716Z,2.54
2022-12-29T19:59:03.409Z,2.32
2022-12-29T20:01:32.334Z,2.51
2022-12-29T20:04:03.238Z,2.59
2022-12-29T20:06:31.801Z,2.60
2022-12-29T20:09:03.352Z,2.59
2022-12-29T20:11:31.688Z,2.67
2022-12-29T20:13:59.576Z,2.55
2022-12-29T20:16:29.904Z,2.38
2022-12-29T20:18:58.049Z,2.35
2022-12-29T20:21:26.207Z,2.44
2022-12-29T20:23:54.602Z,2.52
2022-12-29T20:26:26.227Z,2.54
2022-12-29T20:28:55.338Z,2.58
2022-12-29T20:31:32.755Z,2.47
2022-12-29T20:34:01.230Z,2.53
2022-12-29T20:36:32.597Z,2.38
2022-12-29T20:39:04.274Z,2.37
2022-12-29T20:41:32.385Z,2.24
2022-12-29T20:44:01.013Z,2.33
2022-12-29T20:46:35.300Z,2.43
2022-12-29T20:49:08.077Z,2.45
2022-12-29T20:52:04.645Z,2.37
2022-12-29T20:54:24.844Z,2.30
2022-12-29T20:56:52.784Z,2.27
2022-12-29T20:59:29.043Z,2.34
2022-12-29T21:01:58.595Z,2.31
2022-12-29T21:04:26.533Z,2.11
2022-12-29T21:06:54.841Z,2.20
2022-12-29T21:09:23.293Z,2.21
2022-12-29T21:11:51.336Z,2.15
2022-12-29T21:14:22.588Z,2.20
2022-12-29T21:16:50.642Z,1.95
2022-12-29T21:19:18.999Z,1.96
2022-12-29T21:21:46.986Z,2.03
2022-12-29T21:24:15.116Z,2.07
2022-12-29T21:26:43.300Z,1.77
2022-12-29T21:29:11.616Z,1.95
2022-12-29T21:31:39.685Z,2.12
2022-12-29T21:34:07.578Z,1.99
2022-12-29T21:36:36.313Z,2.11
2022-12-29T21:39:05.273Z,2.17
2022-12-29T21:41:33.952Z,2.11
2022-12-29T21:44:20.586Z,1.99
2022-12-29T21:46:48.900Z,2.11
2022-12-29T21:49:16.933Z,2.17
2022-12-29T21:51:50.734Z,1.99
2022-12-29T21:54:41.146Z,1.87
2022-12-29T21:57:09.997Z,1.92
2022-12-29T21:59:57.054Z,1.98
2022-12-29T22:02:46.630Z,1.90
2022-12-29T22:05:34.553Z,1.99
2022-12-29T22:08:21.880Z,1.98
2022-12-29T22:11:08.363Z,1.96
2022-12-29T22:13:39.184Z,1.94
2022-12-29T22:16:10.811Z,1.97
2022-12-29T22:18:39.300Z,1.74
2022-12-29T22:21:09.733Z,1.86
2022-12-29T22:23:38.374Z,1.70
2022-12-29T22:26:10.764Z,1.80
2022-12-29T22:28:40.898Z,1.97
2022-12-29T22:31:27.435Z,1.98
2022-12-29T22:34:01.519Z,2.07
2022-12-29T22:36:30.492Z,2.03
2022-12-29T22:38:58.498Z,2.01
2022-12-29T22:41:27.834Z,2.00
2022-12-29T22:43:55.603Z,1.98
2022-12-29T22:46:23.790Z,1.97
2022-12-29T22:48:51.880Z,1.75
2022-12-29T22:51:19.889Z,1.92
2022-12-29T22:53:51.764Z,2.09
2022-12-29T22:56:21.089Z,2.26
2022-12-29T22:58:49.875Z,2.17
2022-12-29T23:01:21.566Z,2.17
2022-12-29T23:03:49.793Z,2.15
2022-12-29T23:06:19.803Z,2.35
2022-12-29T23:08:48.195Z,2.31
2022-12-29T23:11:16.653Z,2.22
2022-12-29T23:13:46.283Z,2.34
2022-12-29T23:16:15.814Z,2.54
2022-12-29T23:18:47.366Z,2.35
2022-12-29T23:21:17.617Z,2.53
2022-12-29T23:24:04.416Z,2.33
2022-12-29T23:26:36.748Z,2.33
2022-12-29T23:29:08.306Z,2.15
2022-12-29T23:31:36.872Z,2.32
2022-12-29T23:34:06.900Z,2.29
2022-12-29T23:36:35.434Z,2.49
2022-12-29T23:39:04.269Z,2.31
2022-12-29T23:41:32.171Z,2.34
2022-12-29T23:44:00.115Z,2.00
2022-12-29T23:46:29.825Z,2.31
2022-12-29T23:48:57.912Z,2.36
2022-12-29T23:51:26.428Z,2.51
2022-12-29T23:53:54.492Z,2.58
2022-12-29T23:56:23.770Z,2.44
2022-12-29T23:58:52.350Z,2.54
